sensor_id;sensor_type;location;lat;lon;timestamp;P1;durP1;ratioP1;P2;durP2;ratioP2
48993;SDS011;34804;49.214;12.276;2024-02-28T00:02:03;29.67;;;15.65;;
48993;SDS011;34804;49.214;12.276;2024-02-28T00:04:29;26.42;;;15.48;;
48993;SDS011;34804;49.214;12.276;2024-02-28T00:06:56;28.70;;;15.73;;
48993;SDS011;34804;49.214;12.276;2024-02-28T00:09:23;25.65;;;15.40;;
48993;SDS011;34804;49.214;12.276;2024-02-28T00:11:50;29.30;;;16.60;;
48993;SDS011;34804;49.214;12.276;2024-02-28T00:14:17;31.60;;;17.00;;
48993;SDS011;34804;49.214;12.276;2024-02-28T00:16:45;24.65;;;14.80;;
48993;SDS011;34804;49.214;12.276;2024-02-28T00:19:12;26.77;;;15.43;;
48993;SDS011;34804;49.214;12.276;2024-02-28T00:21:40;28.38;;;15.35;;
48993;SDS011;34804;49.214;12.276;2024-02-28T00:24:07;25.27;;;14.98;;
48993;SDS011;34804;49.214;12.276;2024-02-28T00:26:35;30.42;;;16.38;;
48993;SDS011;34804;49.214;12.276;2024-02-28T00:29:02;27.50;;;15.82;;
48993;SDS011;34804;49.214;12.276;2024-02-28T00:31:29;28.13;;;16.25;;
48993;SDS011;34804;49.214;12.276;2024-02-28T00:33:56;27.90;;;16.83;;
48993;SDS011;34804;49.214;12.276;2024-02-28T00:36:23;27.08;;;16.63;;
48993;SDS011;34804;49.214;12.276;2024-02-28T00:38:50;31.48;;;17.10;;
48993;SDS011;34804;49.214;12.276;2024-02-28T00:41:17;26.75;;;15.50;;
48993;SDS011;34804;49.214;12.276;2024-02-28T00:43:43;28.50;;;16.88;;
48993;SDS011;34804;49.214;12.276;2024-02-28T00:46:10;25.65;;;15.73;;
48993;SDS011;34804;49.214;12.276;2024-02-28T00:48:39;23.65;;;13.55;;
48993;SDS011;34804;49.214;12.276;2024-02-28T00:51:06;20.10;;;11.95;;
48993;SDS011;34804;49.214;12.276;2024-02-28T00:53:36;22.73;;;12.85;;
48993;SDS011;34804;49.214;12.276;2024-02-28T00:56:03;24.13;;;13.52;;
48993;SDS011;34804;49.214;12.276;2024-02-28T00:58:30;22.33;;;13.00;;
48993;SDS011;34804;49.214;12.276;2024-02-28T01:00:57;24.35;;;13.13;;
48993;SDS011;34804;49.214;12.276;2024-02-28T01:03:24;23.58;;;13.65;;
48993;SDS011;34804;49.214;12.276;2024-02-28T01:05:51;20.27;;;11.60;;
48993;SDS011;34804;49.214;12.276;2024-02-28T01:08:18;21.85;;;12.50;;
48993;SDS011;34804;49.214;12.276;2024-02-28T01:10:45;24.23;;;12.45;;
48993;SDS011;34804;49.214;12.276;2024-02-28T01:13:13;23.98;;;13.20;;
48993;SDS011;34804;49.214;12.276;2024-02-28T01:15:40;24.58;;;13.32;;
48993;SDS011;34804;49.214;12.276;2024-02-28T01:18:10;21.83;;;13.90;;
48993;SDS011;34804;49.214;12.276;2024-02-28T01:20:37;29.58;;;15.13;;
48993;SDS011;34804;49.214;12.276;2024-02-28T01:23:04;29.45;;;16.77;;
48993;SDS011;34804;49.214;12.276;2024-02-28T01:25:31;26.10;;;15.30;;
48993;SDS011;34804;49.214;12.276;2024-02-28T01:27:58;30.23;;;16.02;;
48993;SDS011;34804;49.214;12.276;2024-02-28T01:30:25;32.58;;;16.90;;
48993;SDS011;34804;49.214;12.276;2024-02-28T01:32:52;28.45;;;16.10;;
48993;SDS011;34804;49.214;12.276;2024-02-28T01:35:19;27.08;;;14.95;;
48993;SDS011;34804;49.214;12.276;2024-02-28T01:37:46;29.42;;;15.68;;
48993;SDS011;34804;49.214;12.276;2024-02-28T01:40:13;27.90;;;15.32;;
48993;SDS011;34804;49.214;12.276;2024-02-28T01:42:40;29.45;;;15.50;;
48993;SDS011;34804;49.214;12.276;2024-02-28T01:45:08;27.88;;;14.90;;
48993;SDS011;34804;49.214;12.276;2024-02-28T01:47:39;25.55;;;14.63;;
48993;SDS011;34804;49.214;12.276;2024-02-28T01:50:07;24.90;;;14.02;;
48993;SDS011;34804;49.214;12.276;2024-02-28T01:52:36;24.80;;;14.75;;
48993;SDS011;34804;49.214;12.276;2024-02-28T01:55:04;25.35;;;14.27;;
48993;SDS011;34804;49.214;12.276;2024-02-28T01:57:32;22.60;;;13.80;;
48993;SDS011;34804;49.214;12.276;2024-02-28T02:00:00;25.95;;;14.55;;
48993;SDS011;34804;49.214;12.276;2024-02-28T02:02:28;23.67;;;13.23;;
48993;SDS011;34804;49.214;12.276;2024-02-28T02:04:55;23.25;;;13.82;;
48993;SDS011;34804;49.214;12.276;2024-02-28T02:07:24;22.58;;;13.07;;
48993;SDS011;34804;49.214;12.276;2024-02-28T02:09:52;22.00;;;13.77;;
48993;SDS011;34804;49.214;12.276;2024-02-28T02:12:19;31.40;;;17.40;;
48993;SDS011;34804;49.214;12.276;2024-02-28T02:14:49;38.35;;;18.00;;
48993;SDS011;34804;49.214;12.276;2024-02-28T02:17:16;32.58;;;19.20;;
48993;SDS011;34804;49.214;12.276;2024-02-28T02:19:43;32.00;;;18.95;;
48993;SDS011;34804;49.214;12.276;2024-02-28T02:22:10;33.90;;;19.02;;
48993;SDS011;34804;49.214;12.276;2024-02-28T02:24:40;34.67;;;19.95;;
48993;SDS011;34804;49.214;12.276;2024-02-28T02:27:07;34.75;;;19.00;;
48993;SDS011;34804;49.214;12.276;2024-02-28T02:29:34;32.90;;;18.50;;
48993;SDS011;34804;49.214;12.276;2024-02-28T02:32:01;35.88;;;19.52;;
48993;SDS011;34804;49.214;12.276;2024-02-28T02:34:28;40.10;;;19.40;;
48993;SDS011;34804;49.214;12.276;2024-02-28T02:36:55;33.33;;;18.95;;
48993;SDS011;34804;49.214;12.276;2024-02-28T02:39:22;31.83;;;18.67;;
48993;SDS011;34804;49.214;12.276;2024-02-28T02:41:48;33.60;;;18.75;;
48993;SDS011;34804;49.214;12.276;2024-02-28T02:44:15;30.33;;;17.52;;
48993;SDS011;34804;49.214;12.276;2024-02-28T02:46:42;32.63;;;18.33;;
48993;SDS011;34804;49.214;12.276;2024-02-28T02:49:09;32.17;;;17.80;;
48993;SDS011;34804;49.214;12.276;2024-02-28T02:51:36;31.40;;;17.67;;
48993;SDS011;34804;49.214;12.276;2024-02-28T02:54:04;30.80;;;17.73;;
48993;SDS011;34804;49.214;12.276;2024-02-28T02:56:31;31.52;;;17.70;;
48993;SDS011;34804;49.214;12.276;2024-02-28T02:58:58;29.52;;;17.42;;
48993;SDS011;34804;49.214;12.276;2024-02-28T03:01:25;31.02;;;17.70;;
48993;SDS011;34804;49.214;12.276;2024-02-28T03:03:52;29.40;;;16.77;;
48993;SDS011;34804;49.214;12.276;2024-02-28T03:06:19;28.70;;;16.92;;
48993;SDS011;34804;49.214;12.276;2024-02-28T03:08:46;31.35;;;16.58;;
48993;SDS011;34804;49.214;12.276;2024-02-28T03:11:12;31.85;;;17.13;;
48993;SDS011;34804;49.214;12.276;2024-02-28T03:13:40;30.95;;;17.40;;
48993;SDS011;34804;49.214;12.276;2024-02-28T03:16:07;28.02;;;15.45;;
48993;SDS011;34804;49.214;12.276;2024-02-28T03:18:34;29.60;;;16.20;;
48993;SDS011;34804;49.214;12.276;2024-02-28T03:21:00;26.88;;;15.68;;
48993;SDS011;34804;49.214;12.276;2024-02-28T03:23:28;26.70;;;15.32;;
48993;SDS011;34804;49.214;12.276;2024-02-28T03:25:55;27.45;;;15.57;;
48993;SDS011;34804;49.214;12.276;2024-02-28T03:28:22;24.80;;;14.93;;
48993;SDS011;34804;49.214;12.276;2024-02-28T03:30:49;30.27;;;16.40;;
48993;SDS011;34804;49.214;12.276;2024-02-28T03:33:16;29.50;;;16.50;;
48993;SDS011;34804;49.214;12.276;2024-02-28T03:35:43;28.88;;;16.33;;
48993;SDS011;34804;49.214;12.276;2024-02-28T03:38:09;29.30;;;15.70;;
48993;SDS011;34804;49.214;12.276;2024-02-28T03:40:36;27.88;;;14.82;;
48993;SDS011;34804;49.214;12.276;2024-02-28T03:43:03;26.00;;;13.50;;
48993;SDS011;34804;49.214;12.276;2024-02-28T03:45:30;24.05;;;12.90;;
48993;SDS011;34804;49.214;12.276;2024-02-28T03:47:57;21.48;;;12.10;;
48993;SDS011;34804;49.214;12.276;2024-02-28T03:50:24;20.42;;;11.43;;
48993;SDS011;34804;49.214;12.276;2024-02-28T03:52:51;20.13;;;11.13;;
48993;SDS011;34804;49.214;12.276;2024-02-28T03:55:17;19.40;;;11.38;;
48993;SDS011;34804;49.214;12.276;2024-02-28T03:57:48;19.95;;;11.10;;
48993;SDS011;34804;49.214;12.276;2024-02-28T04:00:18;20.13;;;11.57;;
48993;SDS011;34804;49.214;12.276;2024-02-28T04:02:45;20.90;;;11.32;;
48993;SDS011;34804;49.214;12.276;2024-02-28T04:05:11;18.08;;;11.23;;
48993;SDS011;34804;49.214;12.276;2024-02-28T04:07:38;20.40;;;11.95;;
48993;SDS011;34804;49.214;12.276;2024-02-28T04:10:05;20.75;;;12.38;;
48993;SDS011;34804;49.214;12.276;2024-02-28T04:12:33;21.55;;;13.10;;
48993;SDS011;34804;49.214;12.276;2024-02-28T04:15:00;18.88;;;11.98;;
48993;SDS011;34804;49.214;12.276;2024-02-28T04:17:27;21.52;;;12.60;;
48993;SDS011;34804;49.214;12.276;2024-02-28T04:19:53;20.30;;;12.10;;
48993;SDS011;34804;49.214;12.276;2024-02-28T04:22:20;21.88;;;11.65;;
48993;SDS011;34804;49.214;12.276;2024-02-28T04:24:48;18.70;;;12.18;;
48993;SDS011;34804;49.214;12.276;2024-02-28T04:27:15;19.45;;;11.27;;
48993;SDS011;34804;49.214;12.276;2024-02-28T04:29:42;18.60;;;12.05;;
48993;SDS011;34804;49.214;12.276;2024-02-28T04:32:08;23.23;;;11.85;;
48993;SDS011;34804;49.214;12.276;2024-02-28T04:34:36;20.17;;;11.40;;
48993;SDS011;34804;49.214;12.276;2024-02-28T04:37:03;21.42;;;12.10;;
48993;SDS011;34804;49.214;12.276;2024-02-28T04:39:30;19.13;;;11.30;;
48993;SDS011;34804;49.214;12.276;2024-02-28T04:41:57;19.95;;;11.80;;
48993;SDS011;34804;49.214;12.276;2024-02-28T04:44:24;20.90;;;12.55;;
48993;SDS011;34804;49.214;12.276;2024-02-28T04:46:51;20.48;;;11.80;;
48993;SDS011;34804;49.214;12.276;2024-02-28T04:49:18;21.42;;;12.23;;
48993;SDS011;34804;49.214;12.276;2024-02-28T04:51:45;17.95;;;11.50;;
48993;SDS011;34804;49.214;12.276;2024-02-28T04:54:12;21.25;;;11.60;;
48993;SDS011;34804;49.214;12.276;2024-02-28T04:56:40;21.17;;;12.13;;
48993;SDS011;34804;49.214;12.276;2024-02-28T04:59:08;22.35;;;12.65;;
48993;SDS011;34804;49.214;12.276;2024-02-28T05:01:35;24.48;;;12.55;;
48993;SDS011;34804;49.214;12.276;2024-02-28T05:04:06;19.90;;;11.90;;
48993;SDS011;34804;49.214;12.276;2024-02-28T05:06:33;20.02;;;11.82;;
48993;SDS011;34804;49.214;12.276;2024-02-28T05:09:03;21.80;;;12.40;;
48993;SDS011;34804;49.214;12.276;2024-02-28T05:11:31;20.50;;;12.57;;
48993;SDS011;34804;49.214;12.276;2024-02-28T05:13:58;20.75;;;11.82;;
48993;SDS011;34804;49.214;12.276;2024-02-28T05:16:25;22.33;;;12.25;;
48993;SDS011;34804;49.214;12.276;2024-02-28T05:18:52;20.42;;;12.25;;
48993;SDS011;34804;49.214;12.276;2024-02-28T05:21:19;20.92;;;12.35;;
48993;SDS011;34804;49.214;12.276;2024-02-28T05:23:46;23.05;;;12.32;;
48993;SDS011;34804;49.214;12.276;2024-02-28T05:26:12;20.23;;;12.00;;
48993;SDS011;34804;49.214;12.276;2024-02-28T05:28:39;18.70;;;10.75;;
48993;SDS011;34804;49.214;12.276;2024-02-28T05:31:20;22.23;;;12.10;;
48993;SDS011;34804;49.214;12.276;2024-02-28T05:33:51;21.63;;;11.98;;
48993;SDS011;34804;49.214;12.276;2024-02-28T05:36:21;23.35;;;12.40;;
48993;SDS011;34804;49.214;12.276;2024-02-28T05:38:55;20.58;;;11.15;;
48993;SDS011;34804;49.214;12.276;2024-02-28T05:41:22;19.52;;;10.93;;
48993;SDS011;34804;49.214;12.276;2024-02-28T05:43:50;18.73;;;10.82;;
48993;SDS011;34804;49.214;12.276;2024-02-28T05:46:18;20.58;;;11.48;;
48993;SDS011;34804;49.214;12.276;2024-02-28T05:48:46;20.02;;;11.25;;
48993;SDS011;34804;49.214;12.276;2024-02-28T05:51:13;18.83;;;11.18;;
48993;SDS011;34804;49.214;12.276;2024-02-28T05:53:41;20.17;;;11.30;;
48993;SDS011;34804;49.214;12.276;2024-02-28T05:56:09;19.02;;;11.32;;
48993;SDS011;34804;49.214;12.276;2024-02-28T05:58:43;18.23;;;10.85;;
48993;SDS011;34804;49.214;12.276;2024-02-28T06:01:11;21.70;;;11.95;;
48993;SDS011;34804;49.214;12.276;2024-02-28T06:03:39;17.75;;;10.73;;
48993;SDS011;34804;49.214;12.276;2024-02-28T06:06:06;19.25;;;10.88;;
48993;SDS011;34804;49.214;12.276;2024-02-28T06:08:34;18.23;;;10.93;;
48993;SDS011;34804;49.214;12.276;2024-02-28T06:11:04;21.80;;;12.18;;
48993;SDS011;34804;49.214;12.276;2024-02-28T06:13:31;23.13;;;11.13;;
48993;SDS011;34804;49.214;12.276;2024-02-28T06:16:02;21.23;;;13.00;;
48993;SDS011;34804;49.214;12.276;2024-02-28T06:18:30;23.27;;;13.10;;
48993;SDS011;34804;49.214;12.276;2024-02-28T06:21:00;21.70;;;12.18;;
48993;SDS011;34804;49.214;12.276;2024-02-28T06:23:28;19.65;;;10.35;;
48993;SDS011;34804;49.214;12.276;2024-02-28T06:25:56;21.65;;;11.98;;
48993;SDS011;34804;49.214;12.276;2024-02-28T06:28:24;18.85;;;10.07;;
48993;SDS011;34804;49.214;12.276;2024-02-28T06:30:51;18.35;;;10.38;;
48993;SDS011;34804;49.214;12.276;2024-02-28T06:33:18;23.50;;;11.15;;
48993;SDS011;34804;49.214;12.276;2024-02-28T06:35:45;19.15;;;10.45;;
48993;SDS011;34804;49.214;12.276;2024-02-28T06:38:12;20.05;;;11.13;;
48993;SDS011;34804;49.214;12.276;2024-02-28T06:40:39;18.63;;;10.98;;
48993;SDS011;34804;49.214;12.276;2024-02-28T06:43:07;18.25;;;10.25;;
48993;SDS011;34804;49.214;12.276;2024-02-28T06:45:34;19.33;;;11.70;;
48993;SDS011;34804;49.214;12.276;2024-02-28T06:48:03;18.23;;;10.57;;
48993;SDS011;34804;49.214;12.276;2024-02-28T06:50:31;19.15;;;11.27;;
48993;SDS011;34804;49.214;12.276;2024-02-28T06:52:57;17.92;;;10.30;;
48993;SDS011;34804;49.214;12.276;2024-02-28T06:55:25;18.88;;;11.05;;
48993;SDS011;34804;49.214;12.276;2024-02-28T06:57:52;20.23;;;11.23;;
48993;SDS011;34804;49.214;12.276;2024-02-28T07:00:19;17.60;;;10.52;;
48993;SDS011;34804;49.214;12.276;2024-02-28T07:02:46;18.73;;;11.23;;
48993;SDS011;34804;49.214;12.276;2024-02-28T07:05:13;20.35;;;10.45;;
48993;SDS011;34804;49.214;12.276;2024-02-28T07:07:40;18.98;;;10.18;;
48993;SDS011;34804;49.214;12.276;2024-02-28T07:10:07;18.45;;;9.52;;
48993;SDS011;34804;49.214;12.276;2024-02-28T07:12:34;17.95;;;10.95;;
48993;SDS011;34804;49.214;12.276;2024-02-28T07:15:01;17.42;;;10.05;;
48993;SDS011;34804;49.214;12.276;2024-02-28T07:17:29;19.45;;;10.55;;
48993;SDS011;34804;49.214;12.276;2024-02-28T07:19:56;21.17;;;10.65;;
48993;SDS011;34804;49.214;12.276;2024-02-28T07:22:23;19.27;;;10.43;;
48993;SDS011;34804;49.214;12.276;2024-02-28T07:24:50;18.98;;;10.00;;
48993;SDS011;34804;49.214;12.276;2024-02-28T07:27:17;16.90;;;9.82;;
48993;SDS011;34804;49.214;12.276;2024-02-28T07:29:44;18.83;;;10.23;;
48993;SDS011;34804;49.214;12.276;2024-02-28T07:32:11;15.40;;;9.70;;
48993;SDS011;34804;49.214;12.276;2024-02-28T07:34:38;20.05;;;10.48;;
48993;SDS011;34804;49.214;12.276;2024-02-28T07:37:06;16.52;;;8.98;;
48993;SDS011;34804;49.214;12.276;2024-02-28T07:39:33;18.40;;;9.57;;
48993;SDS011;34804;49.214;12.276;2024-02-28T07:41:59;18.38;;;9.80;;
48993;SDS011;34804;49.214;12.276;2024-02-28T07:44:27;16.98;;;9.27;;
48993;SDS011;34804;49.214;12.276;2024-02-28T07:46:57;16.38;;;9.85;;
48993;SDS011;34804;49.214;12.276;2024-02-28T07:49:25;17.27;;;9.25;;
48993;SDS011;34804;49.214;12.276;2024-02-28T07:51:54;19.38;;;10.32;;
48993;SDS011;34804;49.214;12.276;2024-02-28T07:54:21;15.70;;;8.43;;
48993;SDS011;34804;49.214;12.276;2024-02-28T07:56:48;17.23;;;9.77;;
48993;SDS011;34804;49.214;12.276;2024-02-28T07:59:15;16.63;;;9.32;;
48993;SDS011;34804;49.214;12.276;2024-02-28T08:01:42;19.48;;;10.15;;
48993;SDS011;34804;49.214;12.276;2024-02-28T08:04:09;16.45;;;8.93;;
48993;SDS011;34804;49.214;12.276;2024-02-28T08:06:36;15.85;;;8.65;;
48993;SDS011;34804;49.214;12.276;2024-02-28T08:09:03;17.67;;;8.77;;
48993;SDS011;34804;49.214;12.276;2024-02-28T08:11:30;19.27;;;8.93;;
48993;SDS011;34804;49.214;12.276;2024-02-28T08:13:57;17.90;;;9.20;;
48993;SDS011;34804;49.214;12.276;2024-02-28T08:16:24;18.63;;;9.63;;
48993;SDS011;34804;49.214;12.276;2024-02-28T08:18:55;18.02;;;9.40;;
48993;SDS011;34804;49.214;12.276;2024-02-28T08:21:22;18.23;;;9.32;;
48993;SDS011;34804;49.214;12.276;2024-02-28T08:23:49;18.52;;;9.23;;
48993;SDS011;34804;49.214;12.276;2024-02-28T08:26:15;18.70;;;8.93;;
48993;SDS011;34804;49.214;12.276;2024-02-28T08:28:42;16.30;;;8.80;;
48993;SDS011;34804;49.214;12.276;2024-02-28T08:31:09;15.88;;;8.48;;
48993;SDS011;34804;49.214;12.276;2024-02-28T08:33:36;19.38;;;10.10;;
48993;SDS011;34804;49.214;12.276;2024-02-28T08:36:04;37.00;;;14.63;;
48993;SDS011;34804;49.214;12.276;2024-02-28T08:38:31;22.88;;;11.82;;
48993;SDS011;34804;49.214;12.276;2024-02-28T08:40:58;21.75;;;9.93;;
48993;SDS011;34804;49.214;12.276;2024-02-28T08:43:25;23.92;;;12.60;;
48993;SDS011;34804;49.214;12.276;2024-02-28T08:45:51;22.65;;;11.02;;
48993;SDS011;34804;49.214;12.276;2024-02-28T08:48:20;19.38;;;10.85;;
48993;SDS011;34804;49.214;12.276;2024-02-28T08:50:48;29.73;;;12.75;;
48993;SDS011;34804;49.214;12.276;2024-02-28T08:53:15;30.20;;;13.95;;
48993;SDS011;34804;49.214;12.276;2024-02-28T08:55:42;22.52;;;11.38;;
48993;SDS011;34804;49.214;12.276;2024-02-28T08:58:09;24.67;;;11.15;;
48993;SDS011;34804;49.214;12.276;2024-02-28T09:00:36;30.45;;;12.23;;
48993;SDS011;34804;49.214;12.276;2024-02-28T09:03:03;19.00;;;10.05;;
48993;SDS011;34804;49.214;12.276;2024-02-28T09:05:31;29.35;;;12.85;;
48993;SDS011;34804;49.214;12.276;2024-02-28T09:07:58;20.83;;;10.57;;
48993;SDS011;34804;49.214;12.276;2024-02-28T09:10:25;28.52;;;15.18;;
48993;SDS011;34804;49.214;12.276;2024-02-28T09:12:52;28.25;;;12.10;;
48993;SDS011;34804;49.214;12.276;2024-02-28T09:15:19;28.92;;;11.95;;
48993;SDS011;34804;49.214;12.276;2024-02-28T09:17:46;19.83;;;10.13;;
48993;SDS011;34804;49.214;12.276;2024-02-28T09:20:13;17.95;;;9.93;;
48993;SDS011;34804;49.214;12.276;2024-02-28T09:22:41;21.48;;;9.57;;
48993;SDS011;34804;49.214;12.276;2024-02-28T09:25:08;24.63;;;11.40;;
48993;SDS011;34804;49.214;12.276;2024-02-28T09:27:36;17.40;;;8.60;;
48993;SDS011;34804;49.214;12.276;2024-02-28T09:30:03;26.35;;;12.32;;
48993;SDS011;34804;49.214;12.276;2024-02-28T09:32:31;20.98;;;10.70;;
48993;SDS011;34804;49.214;12.276;2024-02-28T09:34:58;17.10;;;9.43;;
48993;SDS011;34804;49.214;12.276;2024-02-28T09:37:25;16.17;;;8.45;;
48993;SDS011;34804;49.214;12.276;2024-02-28T09:39:52;23.35;;;10.95;;
48993;SDS011;34804;49.214;12.276;2024-02-28T09:42:19;19.65;;;9.38;;
48993;SDS011;34804;49.214;12.276;2024-02-28T09:44:47;16.60;;;8.35;;
48993;SDS011;34804;49.214;12.276;2024-02-28T09:47:14;15.25;;;9.15;;
48993;SDS011;34804;49.214;12.276;2024-02-28T09:49:44;18.77;;;10.57;;
48993;SDS011;34804;49.214;12.276;2024-02-28T09:52:14;18.20;;;8.88;;
48993;SDS011;34804;49.214;12.276;2024-02-28T09:54:41;16.33;;;8.77;;
48993;SDS011;34804;49.214;12.276;2024-02-28T09:57:11;18.33;;;9.60;;
48993;SDS011;34804;49.214;12.276;2024-02-28T09:59:38;18.27;;;9.82;;
48993;SDS011;34804;49.214;12.276;2024-02-28T10:02:19;20.13;;;10.38;;
48993;SDS011;34804;49.214;12.276;2024-02-28T10:04:47;17.25;;;10.50;;
48993;SDS011;34804;49.214;12.276;2024-02-28T10:07:14;16.33;;;10.02;;
48993;SDS011;34804;49.214;12.276;2024-02-28T10:09:41;17.55;;;10.00;;
48993;SDS011;34804;49.214;12.276;2024-02-28T10:12:09;17.77;;;10.90;;
48993;SDS011;34804;49.214;12.276;2024-02-28T10:14:36;17.73;;;9.88;;
48993;SDS011;34804;49.214;12.276;2024-02-28T10:17:04;18.60;;;10.88;;
48993;SDS011;34804;49.214;12.276;2024-02-28T10:19:32;18.17;;;10.25;;
48993;SDS011;34804;49.214;12.276;2024-02-28T10:21:59;19.48;;;10.48;;
48993;SDS011;34804;49.214;12.276;2024-02-28T10:24:26;19.23;;;11.02;;
48993;SDS011;34804;49.214;12.276;2024-02-28T10:26:54;17.52;;;10.68;;
48993;SDS011;34804;49.214;12.276;2024-02-28T10:29:24;17.60;;;10.00;;
48993;SDS011;34804;49.214;12.276;2024-02-28T10:31:51;16.48;;;9.35;;
48993;SDS011;34804;49.214;12.276;2024-02-28T10:34:18;16.70;;;9.98;;
48993;SDS011;34804;49.214;12.276;2024-02-28T10:36:45;16.33;;;10.05;;
48993;SDS011;34804;49.214;12.276;2024-02-28T10:39:13;19.13;;;10.07;;
48993;SDS011;34804;49.214;12.276;2024-02-28T10:41:41;18.48;;;10.23;;
48993;SDS011;34804;49.214;12.276;2024-02-28T10:44:09;17.00;;;9.50;;
48993;SDS011;34804;49.214;12.276;2024-02-28T10:46:38;17.15;;;9.80;;
48993;SDS011;34804;49.214;12.276;2024-02-28T10:49:06;18.70;;;9.32;;
48993;SDS011;34804;49.214;12.276;2024-02-28T10:51:34;17.40;;;9.82;;
48993;SDS011;34804;49.214;12.276;2024-02-28T10:54:10;16.10;;;9.40;;
48993;SDS011;34804;49.214;12.276;2024-02-28T10:56:39;15.30;;;9.07;;
48993;SDS011;34804;49.214;12.276;2024-02-28T10:59:08;16.40;;;10.00;;
48993;SDS011;34804;49.214;12.276;2024-02-28T11:01:38;16.70;;;10.25;;
48993;SDS011;34804;49.214;12.276;2024-02-28T11:04:11;16.48;;;9.05;;
48993;SDS011;34804;49.214;12.276;2024-02-28T11:06:52;16.13;;;9.00;;
48993;SDS011;34804;49.214;12.276;2024-02-28T11:09:22;15.63;;;9.70;;
48993;SDS011;34804;49.214;12.276;2024-02-28T11:11:54;16.63;;;8.95;;
48993;SDS011;34804;49.214;12.276;2024-02-28T11:14:22;17.20;;;9.52;;
48993;SDS011;34804;49.214;12.276;2024-02-28T11:17:04;17.90;;;10.32;;
48993;SDS011;34804;49.214;12.276;2024-02-28T11:19:32;17.02;;;10.20;;
48993;SDS011;34804;49.214;12.276;2024-02-28T11:22:01;19.35;;;9.93;;
48993;SDS011;34804;49.214;12.276;2024-02-28T11:24:31;18.17;;;10.27;;
48993;SDS011;34804;49.214;12.276;2024-02-28T11:26:59;18.92;;;10.40;;
48993;SDS011;34804;49.214;12.276;2024-02-28T11:29:26;16.48;;;9.77;;
48993;SDS011;34804;49.214;12.276;2024-02-28T11:31:57;20.98;;;10.00;;
48993;SDS011;34804;49.214;12.276;2024-02-28T11:34:24;16.52;;;9.80;;
48993;SDS011;34804;49.214;12.276;2024-02-28T11:36:51;17.77;;;9.73;;
48993;SDS011;34804;49.214;12.276;2024-02-28T11:39:20;17.95;;;10.18;;
48993;SDS011;34804;49.214;12.276;2024-02-28T11:41:47;15.50;;;9.55;;
48993;SDS011;34804;49.214;12.276;2024-02-28T11:44:16;17.30;;;10.23;;
48993;SDS011;34804;49.214;12.276;2024-02-28T11:46:45;17.48;;;9.70;;
48993;SDS011;34804;49.214;12.276;2024-02-28T11:49:13;16.52;;;9.95;;
48993;SDS011;34804;49.214;12.276;2024-02-28T11:51:40;18.60;;;10.18;;
48993;SDS011;34804;49.214;12.276;2024-02-28T11:54:16;17.25;;;9.93;;
48993;SDS011;34804;49.214;12.276;2024-02-28T11:56:43;15.98;;;9.73;;
48993;SDS011;34804;49.214;12.276;2024-02-28T11:59:12;16.52;;;9.32;;
48993;SDS011;34804;49.214;12.276;2024-02-28T12:01:43;17.65;;;10.07;;
48993;SDS011;34804;49.214;12.276;2024-02-28T12:04:11;16.95;;;9.30;;
48993;SDS011;34804;49.214;12.276;2024-02-28T12:06:38;15.20;;;9.30;;
48993;SDS011;34804;49.214;12.276;2024-02-28T12:09:06;18.58;;;9.82;;
48993;SDS011;34804;49.214;12.276;2024-02-28T12:11:35;14.73;;;9.02;;
48993;SDS011;34804;49.214;12.276;2024-02-28T12:14:03;19.73;;;10.23;;
48993;SDS011;34804;49.214;12.276;2024-02-28T12:16:33;16.95;;;9.50;;
48993;SDS011;34804;49.214;12.276;2024-02-28T12:19:00;15.07;;;9.85;;
48993;SDS011;34804;49.214;12.276;2024-02-28T12:21:29;16.50;;;9.90;;
48993;SDS011;34804;49.214;12.276;2024-02-28T12:23:56;15.57;;;9.30;;
48993;SDS011;34804;49.214;12.276;2024-02-28T12:26:26;16.27;;;9.73;;
48993;SDS011;34804;49.214;12.276;2024-02-28T12:29:03;17.77;;;9.90;;
48993;SDS011;34804;49.214;12.276;2024-02-28T12:31:30;18.38;;;11.48;;
48993;SDS011;34804;49.214;12.276;2024-02-28T12:33:57;14.25;;;9.05;;
48993;SDS011;34804;49.214;12.276;2024-02-28T12:36:24;17.38;;;10.60;;
48993;SDS011;34804;49.214;12.276;2024-02-28T12:38:51;17.27;;;9.57;;
48993;SDS011;34804;49.214;12.276;2024-02-28T12:41:18;17.35;;;10.60;;
48993;SDS011;34804;49.214;12.276;2024-02-28T12:43:45;15.55;;;9.60;;
48993;SDS011;34804;49.214;12.276;2024-02-28T12:46:11;14.90;;;9.13;;
48993;SDS011;34804;49.214;12.276;2024-02-28T12:48:38;16.30;;;8.55;;
48993;SDS011;34804;49.214;12.276;2024-02-28T12:51:08;16.25;;;10.02;;
48993;SDS011;34804;49.214;12.276;2024-02-28T12:53:39;15.75;;;9.18;;
48993;SDS011;34804;49.214;12.276;2024-02-28T12:56:06;17.42;;;9.75;;
48993;SDS011;34804;49.214;12.276;2024-02-28T12:58:33;15.55;;;9.07;;
48993;SDS011;34804;49.214;12.276;2024-02-28T13:01:00;16.95;;;9.77;;
48993;SDS011;34804;49.214;12.276;2024-02-28T13:03:27;18.15;;;9.73;;
48993;SDS011;34804;49.214;12.276;2024-02-28T13:05:54;18.45;;;9.73;;
48993;SDS011;34804;49.214;12.276;2024-02-28T13:08:21;18.05;;;10.60;;
48993;SDS011;34804;49.214;12.276;2024-02-28T13:10:48;14.02;;;8.35;;
48993;SDS011;34804;49.214;12.276;2024-02-28T13:13:15;15.93;;;10.25;;
48993;SDS011;34804;49.214;12.276;2024-02-28T13:15:42;16.38;;;9.40;;
48993;SDS011;34804;49.214;12.276;2024-02-28T13:18:11;13.82;;;7.78;;
48993;SDS011;34804;49.214;12.276;2024-02-28T13:20:41;16.65;;;9.40;;
48993;SDS011;34804;49.214;12.276;2024-02-28T13:23:08;16.90;;;8.85;;
48993;SDS011;34804;49.214;12.276;2024-02-28T13:25:36;15.75;;;8.43;;
48993;SDS011;34804;49.214;12.276;2024-02-28T13:28:03;14.98;;;8.73;;
48993;SDS011;34804;49.214;12.276;2024-02-28T13:30:30;16.95;;;9.38;;
48993;SDS011;34804;49.214;12.276;2024-02-28T13:32:57;15.52;;;9.32;;
48993;SDS011;34804;49.214;12.276;2024-02-28T13:35:25;15.35;;;8.77;;
48993;SDS011;34804;49.214;12.276;2024-02-28T13:37:52;15.55;;;9.50;;
48993;SDS011;34804;49.214;12.276;2024-02-28T13:40:20;15.13;;;8.93;;
48993;SDS011;34804;49.214;12.276;2024-02-28T13:42:47;14.50;;;8.55;;
48993;SDS011;34804;49.214;12.276;2024-02-28T13:45:14;16.73;;;9.57;;
48993;SDS011;34804;49.214;12.276;2024-02-28T13:47:41;15.90;;;9.20;;
48993;SDS011;34804;49.214;12.276;2024-02-28T13:50:08;14.98;;;9.40;;
48993;SDS011;34804;49.214;12.276;2024-02-28T13:52:36;12.98;;;8.02;;
48993;SDS011;34804;49.214;12.276;2024-02-28T13:55:03;15.45;;;8.77;;
48993;SDS011;34804;49.214;12.276;2024-02-28T13:57:30;14.65;;;8.88;;
48993;SDS011;34804;49.214;12.276;2024-02-28T13:59:57;13.93;;;8.55;;
48993;SDS011;34804;49.214;12.276;2024-02-28T14:02:24;16.52;;;9.65;;
48993;SDS011;34804;49.214;12.276;2024-02-28T14:04:53;14.30;;;8.70;;
48993;SDS011;34804;49.214;12.276;2024-02-28T14:07:21;16.13;;;8.55;;
48993;SDS011;34804;49.214;12.276;2024-02-28T14:09:47;15.70;;;9.07;;
48993;SDS011;34804;49.214;12.276;2024-02-28T14:12:14;16.33;;;9.70;;
48993;SDS011;34804;49.214;12.276;2024-02-28T14:14:42;15.07;;;8.68;;
48993;SDS011;34804;49.214;12.276;2024-02-28T14:17:08;14.77;;;8.55;;